Time;durP1;ratioP1;P1;durP2;ratioP2;P2;SDS_P1;SDS_P2;PMS_P1;PMS_P2;Temp;Humidity;BMP_temperature;BMP_pressure;BME280_temperature;BME280_humidity;BME280_pressure;Samples;Min_cycle;Max_cycle;Signal;HPM_P1;HPM_P2
2022/09/28 00:01:25;;;;;;;;;;;;;;;7.17;100.00;99551.28;5041271;28;19921;-59
2022/09/28 00:03:52;;;;;;;;;;;;;;;7.22;100.00;99561.31;5048445;28;19927;-58
2022/09/28 00:06:18;;;;;;;;;;;;;;;7.23;100.00;99555.03;5035001;28;19925;-59
2022/09/28 00:08:44;;;;;;;;;;;;;;;7.25;100.00;99547.78;5045108;28;20009;-58
2022/09/28 00:11:12;;;;;;;;;;;;;;;7.27;100.00;99543.94;5046095;28;19978;-59
2022/09/28 00:13:38;;;;;;;;;;;;;;;7.28;100.00;99540.31;5049803;28;19977;-59
2022/09/28 00:16:03;;;;;;;;;;;;;;;7.31;100.00;99541.78;5044472;28;19917;-59
2022/09/28 00:18:28;;;;;;;;;;;;;;;7.33;100.00;99534.47;5043236;28;19924;-59
2022/09/28 00:21:06;;;;;;;;;;;;;;;7.35;100.00;99532.47;5043891;28;21332;-59
2022/09/28 00:23:32;;;;;;;;;;;;;;;7.37;100.00;99541.03;5040787;28;19924;-59
2022/09/28 00:26:00;;;;;;;;;;;;;;;7.36;100.00;99534.94;5044564;28;19916;-59
2022/09/28 00:28:25;;;;;;;;;;;;;;;7.37;100.00;99533.13;5046731;28;19963;-59
2022/09/28 00:30:54;;;;;;;;;;;;;;;7.35;100.00;99532.47;5044014;28;19956;-59
2022/09/28 00:33:19;;;;;;;;;;;;;;;7.33;100.00;99524.75;5043122;28;20391;-59
2022/09/28 00:35:44;;;;;;;;;;;;;;;7.34;100.00;99522.91;5044426;28;19982;-60
2022/09/28 00:38:09;;;;;;;;;;;;;;;7.35;100.00;99528.00;5043344;28;19925;-59
2022/09/28 00:40:35;;;;;;;;;;;;;;;7.35;100.00;99537.75;5042883;28;19921;-59
2022/09/28 00:43:15;;;;;;;;;;;;;;;7.35;100.00;99532.47;5046905;28;20648;-59
2022/09/28 00:45:40;;;;;;;;;;;;;;;7.36;100.00;99528.84;5045729;28;19921;-59
2022/09/28 00:48:06;;;;;;;;;;;;;;;7.37;100.00;99528.66;5044315;28;19924;-59
2022/09/28 00:50:34;;;;;;;;;;;;;;;7.38;100.00;99526.81;5044671;28;19927;-59
2022/09/28 00:53:05;;;;;;;;;;;;;;;7.39;100.00;99524.00;5045664;28;20303;-59
2022/09/28 00:55:36;;;;;;;;;;;;;;;7.39;100.00;99526.66;5051709;28;20368;-59
2022/09/28 00:58:03;;;;;;;;;;;;;;;7.41;100.00;99524.63;5048243;28;19970;-59
2022/09/28 01:00:29;;;;;;;;;;;;;;;7.43;100.00;99527.09;5043199;28;20028;-59
2022/09/28 01:02:54;;;;;;;;;;;;;;;7.44;100.00;99520.81;5050526;28;20004;-59
2022/09/28 01:05:19;;;;;;;;;;;;;;;7.44;100.00;99523.44;5051208;28;19925;-59
2022/09/28 01:07:45;;;;;;;;;;;;;;;7.44;100.00;99521.63;5048336;28;20407;-59
2022/09/28 01:10:10;;;;;;;;;;;;;;;7.38;100.00;99509.16;5051406;28;19927;-59
2022/09/28 01:12:35;;;;;;;;;;;;;;;7.43;100.00;99524.47;5046003;28;19923;-59
2022/09/28 01:15:01;;;;;;;;;;;;;;;7.41;100.00;99518.53;5047755;28;19917;-59
2022/09/28 01:17:33;;;;;;;;;;;;;;;7.37;100.00;99515.44;5045896;28;20008;-59
2022/09/28 01:19:59;;;;;;;;;;;;;;;7.33;100.00;99516.81;5050548;28;19920;-59
2022/09/28 01:22:33;;;;;;;;;;;;;;;7.29;100.00;99517.38;5045790;28;19924;-59
2022/09/28 01:25:05;;;;;;;;;;;;;;;7.21;100.00;99515.59;5044265;28;20497;-59
2022/09/28 01:27:51;;;;;;;;;;;;;;;7.17;100.00;99524.06;5046033;28;19936;-59
2022/09/28 01:30:18;;;;;;;;;;;;;;;7.12;100.00;99530.72;5046652;28;20312;-59
2022/09/28 01:32:49;;;;;;;;;;;;;;;7.09;100.00;99528.44;5041506;28;20280;-61
2022/09/28 01:35:19;;;;;;;;;;;;;;;7.08;100.00;99526.81;5048855;28;19917;-59
2022/09/28 01:37:47;;;;;;;;;;;;;;;7.09;100.00;99523.16;5049001;28;20003;-59
2022/09/28 01:40:14;;;;;;;;;;;;;;;7.10;100.00;99513.44;5046973;28;19923;-59
2022/09/28 01:42:40;;;;;;;;;;;;;;;7.10;100.00;99522.16;5047014;28;19924;-59
2022/09/28 01:45:10;;;;;;;;;;;;;;;7.11;100.00;99521.16;5048214;28;20003;-59
2022/09/28 01:47:37;;;;;;;;;;;;;;;7.11;100.00;99523.81;5053037;28;19924;-59
2022/09/28 01:50:22;;;;;;;;;;;;;;;7.13;100.00;99520.97;5048822;28;19917;-59
2022/09/28 01:52:53;;;;;;;;;;;;;;;7.14;100.00;99522.63;5046690;28;20356;-59
2022/09/28 01:55:45;;;;;;;;;;;;;;;7.14;100.00;99517.34;5049296;28;19927;-59
2022/09/28 01:58:13;;;;;;;;;;;;;;;7.15;100.00;99524.25;5043666;28;19920;-59
2022/09/28 02:00:40;;;;;;;;;;;;;;;7.15;100.00;99527.72;5046194;28;19929;-59
2022/09/28 02:03:09;;;;;;;;;;;;;;;7.16;100.00;99523.25;5045969;28;20005;-59
2022/09/28 02:05:37;;;;;;;;;;;;;;;7.17;100.00;99524.06;5040319;28;19927;-59
2022/09/28 02:08:06;;;;;;;;;;;;;;;7.18;100.00;99521.25;5048531;28;20350;-59
2022/09/28 02:10:44;;;;;;;;;;;;;;;7.19;100.00;99524.72;5041612;28;19921;-59
2022/09/28 02:13:14;;;;;;;;;;;;;;;7.19;100.00;99509.69;5044218;28;19921;-59
2022/09/28 02:15:59;;;;;;;;;;;;;;;7.20;100.00;99513.16;5046857;28;19925;-60
2022/09/28 02:18:24;;;;;;;;;;;;;;;7.21;100.00;99514.78;5034515;28;20019;-59
2022/09/28 02:20:55;;;;;;;;;;;;;;;7.21;100.00;99510.31;5040162;28;20382;-59
2022/09/28 02:23:22;;;;;;;;;;;;;;;7.21;100.00;99515.59;5040107;28;19980;-59
2022/09/28 02:25:51;;;;;;;;;;;;;;;7.20;100.00;99513.97;5047231;28;20279;-58
2022/09/28 02:28:17;;;;;;;;;;;;;;;7.22;100.00;99522.53;5049740;28;19921;-59
2022/09/28 02:30:43;;;;;;;;;;;;;;;7.24;100.00;99519.72;5046393;28;19917;-59
2022/09/28 02:33:24;;;;;;;;;;;;;;;7.21;100.00;99520.06;5038948;28;19964;-59
2022/09/28 02:35:49;;;;;;;;;;;;;;;7.20;100.00;99521.06;5045987;28;19943;-59
2022/09/28 02:38:14;;;;;;;;;;;;;;;7.19;100.00;99520.25;5042528;28;20280;-59
2022/09/28 02:40:42;;;;;;;;;;;;;;;7.19;100.00;99520.25;5047650;28;19924;-59
2022/09/28 02:43:14;;;;;;;;;;;;;;;7.20;100.00;99516.59;5043826;28;19924;-59
2022/09/28 02:45:58;;;;;;;;;;;;;;;7.17;100.00;99514.34;5042219;28;19921;-59
2022/09/28 02:48:31;;;;;;;;;;;;;;;7.22;100.00;99514.59;5041516;28;19984;-59
2022/09/28 02:51:04;;;;;;;;;;;;;;;7.22;100.00;99521.72;5049560;28;19970;-59
2022/09/28 02:53:40;;;;;;;;;;;;;;;7.20;100.00;99521.91;5043459;28;20261;-60
2022/09/28 02:56:16;;;;;;;;;;;;;;;7.21;100.00;99514.78;5044402;28;20396;-60
2022/09/28 02:58:41;;;;;;;;;;;;;;;7.24;100.00;99519.72;5041973;28;19935;-59
2022/09/28 03:01:39;;;;;;;;;;;;;;;7.25;100.00;99516.09;5041419;28;19921;-59
2022/09/28 03:04:04;;;;;;;;;;;;;;;7.27;100.00;99522.81;5011194;28;19920;-59
2022/09/28 03:06:36;;;;;;;;;;;;;;;7.31;100.00;99523.28;5043961;28;19940;-59
2022/09/28 03:09:01;;;;;;;;;;;;;;;7.28;100.00;99521.00;5046861;28;19923;-59
2022/09/28 03:11:30;;;;;;;;;;;;;;;7.29;100.00;99512.09;5047706;28;19913;-59
2022/09/28 03:13:56;;;;;;;;;;;;;;;7.32;100.00;99522.28;5038735;28;20078;-60
2022/09/28 03:16:21;;;;;;;;;;;;;;;7.32;100.00;99522.28;5040955;28;20399;-59
2022/09/28 03:18:47;;;;;;;;;;;;;;;7.31;100.00;99528.56;5044483;28;19932;-59
2022/09/28 03:21:12;;;;;;;;;;;;;;;7.27;100.00;99516.72;5047744;28;19939;-59
2022/09/28 03:23:38;;;;;;;;;;;;;;;7.25;100.00;99522.19;5042987;28;19912;-59
2022/09/28 03:26:04;;;;;;;;;;;;;;;7.24;100.00;99517.09;5041979;28;19936;-58
2022/09/28 03:28:29;;;;;;;;;;;;;;;7.23;100.00;99520.72;5046286;28;19922;-59
2022/09/28 03:30:54;;;;;;;;;;;;;;;7.22;100.00;99513.78;5046677;28;20276;-58
2022/09/28 03:33:20;;;;;;;;;;;;;;;7.22;100.00;99519.88;5044804;28;19965;-60
2022/09/28 03:35:49;;;;;;;;;;;;;;;7.23;100.00;99528.63;5035037;28;19983;-59
2022/09/28 03:38:15;;;;;;;;;;;;;;;7.25;100.00;99521.38;5044047;28;19942;-59
2022/09/28 03:40:40;;;;;;;;;;;;;;;7.28;100.00;99535.03;5043788;28;19925;-59
2022/09/28 03:43:05;;;;;;;;;;;;;;;7.31;100.00;99532.03;5045871;28;20586;-59
2022/09/28 03:45:30;;;;;;;;;;;;;;;7.33;100.00;99523.91;5045593;28;19921;-58
2022/09/28 03:47:55;;;;;;;;;;;;;;;7.31;100.00;99531.22;5045169;28;20360;-59
2022/09/28 03:50:20;;;;;;;;;;;;;;;7.32;100.00;99527.56;5045308;28;19921;-58
2022/09/28 03:52:46;;;;;;;;;;;;;;;7.32;100.00;99527.56;5046721;28;20261;-59
2022/09/28 03:55:11;;;;;;;;;;;;;;;7.31;100.00;99533.84;5050855;28;20416;-59
2022/09/28 03:57:36;;;;;;;;;;;;;;;7.34;100.00;99534.28;5045164;28;19975;-59
2022/09/28 04:00:03;;;;;;;;;;;;;;;7.32;100.00;99533.66;5047295;28;19939;-59
2022/09/28 04:02:29;;;;;;;;;;;;;;;7.33;100.00;99534.47;5043808;28;20363;-59
2022/09/28 04:04:54;;;;;;;;;;;;;;;7.33;100.00;99531.84;5044576;28;19917;-59
2022/09/28 04:07:19;;;;;;;;;;;;;;;7.32;100.00;99532.84;5051164;28;19917;-59
2022/09/28 04:09:44;;;;;;;;;;;;;;;7.33;100.00;99530.03;5050138;28;20393;-59
2022/09/28 04:12:09;;;;;;;;;;;;;;;7.32;100.00;99531.03;5050360;28;19917;-59
2022/09/28 04:14:35;;;;;;;;;;;;;;;7.30;100.00;99529.56;5055386;28;20421;-59
2022/09/28 04:17:00;;;;;;;;;;;;;;;7.28;100.00;99527.09;5048032;28;19920;-59
2022/09/28 04:19:26;;;;;;;;;;;;;;;7.27;100.00;99524.66;5058567;28;20146;-58
2022/09/28 04:21:51;;;;;;;;;;;;;;;7.27;100.00;99527.28;5044811;28;19921;-59
2022/09/28 04:24:17;;;;;;;;;;;;;;;7.23;100.00;99523.34;5046779;28;19913;-58
2022/09/28 04:26:42;;;;;;;;;;;;;;;7.21;100.00;99520.06;5051754;28;19917;-59
2022/09/28 04:29:16;;;;;;;;;;;;;;;7.21;100.00;99512.16;5049381;28;20008;-58
2022/09/28 04:31:45;;;;;;;;;;;;;;;7.19;100.00;99511.50;5053837;28;20383;-59
2022/09/28 04:34:13;;;;;;;;;;;;;;;7.16;100.00;99507.41;5049461;28;19921;-59
2022/09/28 04:36:39;;;;;;;;;;;;;;;7.13;100.00;99515.69;5041526;28;19919;-58
2022/09/28 04:39:04;;;;;;;;;;;;;;;7.11;100.00;99507.97;5047382;28;19917;-59
2022/09/28 04:41:29;;;;;;;;;;;;;;;7.06;100.00;99515.63;5052239;28;19924;-59
2022/09/28 04:43:54;;;;;;;;;;;;;;;7.02;100.00;99516.16;5044730;28;20388;-59
2022/09/28 04:46:20;;;;;;;;;;;;;;;6.97;100.00;99524.63;5049313;28;20376;-59
2022/09/28 04:48:45;;;;;;;;;;;;;;;6.92;100.00;99532.22;5052139;28;20015;-59
2022/09/28 04:51:10;;;;;;;;;;;;;;;6.90;100.00;99542.16;5050433;28;19916;-60
2022/09/28 04:53:35;;;;;;;;;;;;;;;6.90;100.00;99542.16;5043035;28;19985;-59
2022/09/28 04:56:02;;;;;;;;;;;;;;;6.84;100.00;99538.41;5046435;28;19971;-59
2022/09/28 04:58:28;;;;;;;;;;;;;;;6.79;100.00;99538.13;5043551;28;19917;-59
2022/09/28 05:00:56;;;;;;;;;;;;;;;6.79;100.00;99537.31;5049300;28;20006;-59
2022/09/28 05:03:21;;;;;;;;;;;;;;;6.82;100.00;99539.59;5043704;28;19916;-59
2022/09/28 05:05:46;;;;;;;;;;;;;;;6.81;100.00;99545.84;5048746;28;19967;-59
2022/09/28 05:08:12;;;;;;;;;;;;;;;6.83;100.00;99543.88;5050365;28;20295;-59
2022/09/28 05:10:39;;;;;;;;;;;;;;;6.87;100.00;99545.16;5050222;28;19916;-58
2022/09/28 05:13:04;;;;;;;;;;;;;;;6.90;100.00;99542.16;5048727;28;19926;-59
2022/09/28 05:15:30;;;;;;;;;;;;;;;6.97;100.00;99545.72;5048676;28;19994;-62
2022/09/28 05:17:55;;;;;;;;;;;;;;;7.01;100.00;99539.09;5042972;28;20453;-62
2022/09/28 05:20:20;;;;;;;;;;;;;;;7.06;100.00;99549.09;5049060;28;19912;-62
2022/09/28 05:22:45;;;;;;;;;;;;;;;7.02;100.00;99543.38;5049499;28;19936;-63
2022/09/28 05:25:10;;;;;;;;;;;;;;;6.99;100.00;99550.84;5046531;28;19929;-63
2022/09/28 05:27:35;;;;;;;;;;;;;;;6.98;100.00;99552.66;5043037;28;19919;-63
2022/09/28 05:30:01;;;;;;;;;;;;;;;6.94;100.00;99546.09;5046290;28;20342;-63
2022/09/28 05:32:26;;;;;;;;;;;;;;;6.91;100.00;99543.78;5049141;28;19913;-62
2022/09/28 05:34:51;;;;;;;;;;;;;;;6.89;100.00;99547.59;5046669;28;19923;-62
2022/09/28 05:37:16;;;;;;;;;;;;;;;6.84;100.00;99546.31;5044732;28;19960;-62
2022/09/28 05:39:41;;;;;;;;;;;;;;;6.81;100.00;99545.84;5042952;28;20323;-62
2022/09/28 05:42:07;;;;;;;;;;;;;;;6.78;100.00;99543.59;5047941;28;19924;-62
2022/09/28 05:44:32;;;;;;;;;;;;;;;6.74;100.00;99551.03;5046482;28;19928;-62
2022/09/28 05:46:57;;;;;;;;;;;;;;;6.71;100.00;99551.38;5044455;28;19983;-62
2022/09/28 05:49:22;;;;;;;;;;;;;;;6.68;100.00;99550.94;5048204;28;19924;-62
2022/09/28 05:51:47;;;;;;;;;;;;;;;6.64;100.00;99555.72;5041570;28;19917;-62
2022/09/28 05:54:12;;;;;;;;;;;;;;;6.62;100.00;99552.44;5047967;28;19916;-62
2022/09/28 05:56:38;;;;;;;;;;;;;;;6.61;100.00;99557.88;5048050;28;19970;-61
2022/09/28 05:59:04;;;;;;;;;;;;;;;6.58;100.00;99553.78;5045340;28;19924;-62
2022/09/28 06:01:30;;;;;;;;;;;;;;;6.59;100.00;99554.59;5039648;28;19928;-62
2022/09/28 06:03:55;;;;;;;;;;;;;;;6.59;100.00;99559.88;5045114;28;19921;-62
2022/09/28 06:06:20;;;;;;;;;;;;;;;6.58;100.00;99551.16;5045883;28;20058;-62
2022/09/28 06:08:47;;;;;;;;;;;;;;;6.58;100.00;99555.59;5042848;28;19917;-62
2022/09/28 06:11:12;;;;;;;;;;;;;;;6.56;100.00;99557.59;5049345;28;20019;-62
2022/09/28 06:13:38;;;;;;;;;;;;;;;6.46;100.00;99555.22;5043436;28;19999;-62
2022/09/28 06:16:06;;;;;;;;;;;;;;;6.51;100.00;99566.88;5046115;28;19917;-62
2022/09/28 06:18:31;;;;;;;;;;;;;;;6.51;100.00;99569.50;5038360;28;20296;-62
2022/09/28 06:20:57;;;;;;;;;;;;;;;6.52;100.00;99573.78;5040438;28;19921;-62
2022/09/28 06:23:22;;;;;;;;;;;;;;;6.53;100.00;99574.59;5040370;28;19971;-62
2022/09/28 06:25:47;;;;;;;;;;;;;;;6.53;100.00;99571.97;5047031;28;19972;-62
2022/09/28 06:28:13;;;;;;;;;;;;;;;6.53;100.00;99572.78;5046948;28;19913;-62
2022/09/28 06:30:39;;;;;;;;;;;;;;;6.56;100.00;99568.16;5044601;28;20031;-62
2022/09/28 06:33:05;;;;;;;;;;;;;;;6.62;100.00;99575.34;5041216;28;20495;-62
2022/09/28 06:35:31;;;;;;;;;;;;;;;6.67;100.00;99571.22;5045516;28;20557;-62
2022/09/28 06:37:59;;;;;;;;;;;;;;;6.74;100.00;99574.78;5044568;28;19916;-62
2022/09/28 06:40:25;;;;;;;;;;;;;;;6.81;100.00;99585.44;5047652;28;19920;-62
2022/09/28 06:42:57;;;;;;;;;;;;;;;6.87;100.00;99592.66;5050472;28;19917;-62
2022/09/28 06:45:24;;;;;;;;;;;;;;;6.91;100.00;99588.66;5039433;28;19971;-62
2022/09/28 06:47:53;;;;;;;;;;;;;;;6.91;100.00;99583.38;5044454;28;19959;-62
2022/09/28 06:50:18;;;;;;;;;;;;;;;7.01;100.00;99583.97;5047818;28;19917;-62
2022/09/28 06:52:43;;;;;;;;;;;;;;;7.06;100.00;99589.53;5047542;28;19913;-62
2022/09/28 06:55:09;;;;;;;;;;;;;;;7.10;100.00;99589.97;5041735;28;19925;-62
2022/09/28 06:57:34;;;;;;;;;;;;;;;7.16;100.00;99597.19;5047038;28;19917;-62
2022/09/28 06:59:59;;;;;;;;;;;;;;;7.19;100.00;99601.28;5045093;28;19927;-62
2022/09/28 07:02:24;;;;;;;;;;;;;;;7.24;100.00;99598.94;5045191;28;19943;-62
2022/09/28 07:04:49;;;;;;;;;;;;;;;7.30;100.00;99601.69;5043301;28;19924;-62
2022/09/28 07:07:15;;;;;;;;;;;;;;;7.37;100.00;99604.41;5043371;28;19925;-62
2022/09/28 07:09:40;;;;;;;;;;;;;;;7.44;100.00;99600.03;5040465;28;20345;-62
2022/09/28 07:12:08;;;;;;;;;;;;;;;7.50;100.00;99604.59;5040107;28;19913;-62
2022/09/28 07:14:34;;;;;;;;;;;;;;;7.57;100.00;99607.38;5048081;28;20308;-62
2022/09/28 07:16:59;;;;;;;;;;;;;;;7.64;100.00;99605.63;5043035;28;19917;-62
2022/09/28 07:19:24;;;;;;;;;;;;;;;7.69;100.00;99603.25;5043734;28;19913;-62
2022/09/28 07:21:52;;;;;;;;;;;;;;;7.74;100.00;99607.00;5047561;28;19923;-62
2022/09/28 07:24:18;;;;;;;;;;;;;;;7.77;100.00;99611.91;5052693;28;19921;-62
2022/09/28 07:26:44;;;;;;;;;;;;;;;7.86;100.00;99614.47;5048547;28;20000;-62
2022/09/28 07:29:09;;;;;;;;;;;;;;;7.94;100.00;99619.66;5043669;28;20075;-62
2022/09/28 07:31:34;;;;;;;;;;;;;;;8.00;100.00;99621.56;5038145;28;19960;-62
2022/09/28 07:34:00;;;;;;;;;;;;;;;8.08;100.00;99632.03;5048961;28;19920;-62
2022/09/28 07:36:25;;;;;;;;;;;;;;;8.16;100.00;99631.94;5040285;28;19952;-62
2022/09/28 07:38:51;;;;;;;;;;;;;;;8.22;100.00;99625.91;5044704;28;19960;-62
2022/09/28 07:41:21;;;;;;;;;;;;;;;8.30;100.00;99622.34;5044983;28;19935;-62
2022/09/28 07:43:47;;;;;;;;;;;;;;;8.41;100.00;99631.66;5047510;28;19952;-62
2022/09/28 07:46:12;;;;;;;;;;;;;;;8.45;100.00;99636.41;5036034;28;19955;-62
2022/09/28 07:48:41;;;;;;;;;;;;;;;8.52;100.00;99623.25;5044232;28;19996;-62
2022/09/28 07:51:07;;;;;;;;;;;;;;;8.65;100.00;99636.59;5046371;28;19952;-62
2022/09/28 07:53:32;;;;;;;;;;;;;;;8.69;100.00;99637.88;5036305;28;19960;-62
2022/09/28 07:56:08;;;;;;;;;;;;;;;8.76;100.00;99640.59;5041496;28;19920;-62
2022/09/28 07:58:34;;;;;;;;;;;;;;;8.85;100.00;99644.75;5043622;28;20440;-62
2022/09/28 08:01:07;;;;;;;;;;;;;;;8.91;100.00;99642.16;5038182;28;19960;-62
2022/09/28 08:03:33;;;;;;;;;;;;;;;9.02;100.00;99640.03;5047513;28;19917;-62
2022/09/28 08:06:03;;;;;;;;;;;;;;;9.09;99.53;99647.03;5048008;28;20281;-62
2022/09/28 08:08:28;;;;;;;;;;;;;;;9.12;99.14;99640.53;5047691;28;19913;-62
2022/09/28 08:10:55;;;;;;;;;;;;;;;9.17;99.06;99644.22;5045866;28;19927;-62
2022/09/28 08:13:20;;;;;;;;;;;;;;;9.28;98.97;99650.88;5038460;28;19925;-62
2022/09/28 08:15:49;;;;;;;;;;;;;;;9.36;99.24;99650.72;5039157;28;19913;-62
2022/09/28 08:18:14;;;;;;;;;;;;;;;9.42;98.62;99646.47;5037849;28;19921;-62
2022/09/28 08:23:23;;;;;;;;;;;;;;;9.48;97.28;99651.81;5042566;28;19932;-62
2022/09/28 08:25:49;;;;;;;;;;;;;;;9.55;97.25;99657.19;5046981;28;19916;-62
2022/09/28 08:28:17;;;;;;;;;;;;;;;9.61;96.93;99670.50;5037055;28;19913;-62
2022/09/28 08:30:43;;;;;;;;;;;;;;;9.65;97.08;99657.66;5043147;28;20280;-62
2022/09/28 08:33:09;;;;;;;;;;;;;;;9.68;96.57;99659.91;5049313;28;19919;-62
2022/09/28 08:35:34;;;;;;;;;;;;;;;9.75;96.21;99667.91;5042206;28;20015;-62
2022/09/28 08:38:02;;;;;;;;;;;;;;;9.80;96.48;99668.16;5038880;28;19917;-62
2022/09/28 08:40:28;;;;;;;;;;;;;;;9.87;96.17;99672.50;5044414;28;19917;-62
2022/09/28 08:42:56;;;;;;;;;;;;;;;9.99;96.51;99672.75;5037889;28;19995;-62
2022/09/28 08:45:24;;;;;;;;;;;;;;;10.02;95.78;99671.56;5042518;28;19924;-62
2022/09/28 08:50:36;;;;;;;;;;;;;;;10.15;95.40;99676.94;5043494;28;19958;-62
2022/09/28 08:53:04;;;;;;;;;;;;;;;10.18;95.60;99674.72;5044902;28;19939;-62
2022/09/28 08:55:31;;;;;;;;;;;;;;;10.22;95.23;99676.00;5044281;28;19986;-62
2022/09/28 08:58:00;;;;;;;;;;;;;;;10.32;95.36;99680.09;5041373;28;19913;-62
2022/09/28 09:00:32;;;;;;;;;;;;;;;10.41;94.77;99684.25;5047703;28;19932;-62
2022/09/28 09:02:57;;;;;;;;;;;;;;;10.47;94.22;99692.22;5048310;28;19966;-62
2022/09/28 09:05:27;;;;;;;;;;;;;;;10.53;94.21;99694.09;5043619;28;19921;-62
2022/09/28 09:08:07;;;;;;;;;;;;;;;10.71;94.13;99698.88;5049403;28;19917;-62
2022/09/28 09:10:33;;;;;;;;;;;;;;;10.81;93.55;99688.66;5044592;28;19921;-62
2022/09/28 09:13:17;;;;;;;;;;;;;;;10.93;93.18;99694.19;5041307;28;19966;-62
2022/09/28 09:16:00;;;;;;;;;;;;;;;11.06;92.04;99696.91;5047543;28;19923;-62
2022/09/28 09:18:36;;;;;;;;;;;;;;;11.12;90.91;99690.78;5039860;28;20342;-62
2022/09/28 09:21:21;;;;;;;;;;;;;;;11.28;90.76;99691.44;5047675;28;19929;-62
2022/09/28 09:23:54;;;;;;;;;;;;;;;11.40;90.76;99687.94;5035361;28;19929;-62
2022/09/28 09:26:28;;;;;;;;;;;;;;;11.47;90.92;99691.41;5049331;28;19966;-62
2022/09/28 09:29:00;;;;;;;;;;;;;;;11.62;90.52;99695.72;5048453;28;19920;-62
2022/09/28 09:31:35;;;;;;;;;;;;;;;11.75;89.82;99696.53;5042891;28;19924;-62
2022/09/28 09:34:00;;;;;;;;;;;;;;;11.86;88.63;99700.44;5044211;28;19917;-62
2022/09/28 09:36:26;;;;;;;;;;;;;;;11.94;88.58;99702.06;5050183;28;19913;-62
2022/09/28 09:38:59;;;;;;;;;;;;;;;12.03;88.80;99704.28;5047916;28;19912;-62
2022/09/28 09:41:43;;;;;;;;;;;;;;;12.00;88.20;99710.03;5045140;28;20388;-62
2022/09/28 09:44:27;;;;;;;;;;;;;;;11.93;88.30;99716.38;5044773;28;19998;-62
2022/09/28 09:47:05;;;;;;;;;;;;;;;11.88;88.68;99721.53;5049760;28;19913;-62
2022/09/28 09:49:35;;;;;;;;;;;;;;;11.77;87.98;99718.41;5049877;28;20273;-62
2022/09/28 09:52:09;;;;;;;;;;;;;;;11.84;87.49;99730.91;5044409;28;19928;-62
2022/09/28 09:54:36;;;;;;;;;;;;;;;12.02;86.63;99723.94;5050005;28;19965;-62
2022/09/28 09:57:04;;;;;;;;;;;;;;;12.19;85.81;99720.84;5048501;28;19920;-62
2022/09/28 09:59:35;;;;;;;;;;;;;;;12.13;85.14;99719.81;5044220;28;19917;-62
2022/09/28 10:02:02;;;;;;;;;;;;;;;12.18;85.80;99728.03;5044688;28;19927;-62
2022/09/28 10:04:38;;;;;;;;;;;;;;;12.18;85.80;99724.53;5050893;28;19912;-62
2022/09/28 10:07:04;;;;;;;;;;;;;;;12.33;85.34;99717.94;5046044;28;19929;-62
2022/09/28 10:09:33;;;;;;;;;;;;;;;12.34;84.64;99716.09;5044302;28;20011;-62
2022/09/28 10:11:58;;;;;;;;;;;;;;;12.43;84.39;99717.47;5047117;28;20444;-65
2022/09/28 10:14:24;;;;;;;;;;;;;;;12.43;84.57;99719.31;5050836;28;19967;-62
2022/09/28 10:16:54;;;;;;;;;;;;;;;12.45;84.18;99720.78;5047191;28;19966;-62
2022/09/28 10:19:29;;;;;;;;;;;;;;;12.48;84.33;99723.03;5044359;28;19917;-62
2022/09/28 10:21:57;;;;;;;;;;;;;;;12.51;83.90;99706.63;5043959;28;19920;-62
2022/09/28 10:24:30;;;;;;;;;;;;;;;12.58;84.10;99707.41;5040875;28;20150;-62
2022/09/28 10:26:57;;;;;;;;;;;;;;;12.58;82.59;99711.91;5044094;28;19923;-62
2022/09/28 10:29:24;;;;;;;;;;;;;;;12.63;82.02;99712.09;5042780;28;19924;-62
2022/09/28 10:31:51;;;;;;;;;;;;;;;12.63;81.60;99704.91;5038659;28;20427;-62
2022/09/28 10:34:18;;;;;;;;;;;;;;;12.71;82.04;99710.00;5044471;28;20645;-62
2022/09/28 10:36:45;;;;;;;;;;;;;;;12.69;81.39;99714.72;5047014;28;19916;-62
2022/09/28 10:39:28;;;;;;;;;;;;;;;12.73;82.30;99714.31;5036711;28;19962;-62
2022/09/28 10:41:53;;;;;;;;;;;;;;;12.75;81.29;99709.59;5042788;28;19924;-62
2022/09/28 10:44:19;;;;;;;;;;;;;;;12.71;79.98;99707.34;5042845;28;19982;-62
2022/09/28 10:46:54;;;;;;;;;;;;;;;12.75;80.23;99710.41;5050261;28;19956;-62
2022/09/28 10:49:21;;;;;;;;;;;;;;;12.71;79.48;99707.34;5044735;28;19925;-62
2022/09/28 10:51:48;;;;;;;;;;;;;;;12.76;80.79;99708.56;5043686;28;20475;-63
2022/09/28 10:54:18;;;;;;;;;;;;;;;12.82;80.00;99710.38;5044816;28;20346;-62
2022/09/28 10:56:43;;;;;;;;;;;;;;;12.98;80.26;99720.53;5045675;28;19912;-62
2022/09/28 10:59:27;;;;;;;;;;;;;;;13.11;80.14;99715.13;5046922;28;19920;-62
2022/09/28 11:01:54;;;;;;;;;;;;;;;13.16;79.56;99715.31;5042343;28;19943;-62
2022/09/28 11:04:21;;;;;;;;;;;;;;;13.15;78.97;99716.34;5048054;28;20514;-62
2022/09/28 11:06:46;;;;;;;;;;;;;;;13.21;78.79;99702.16;5047382;28;20015;-62
2022/09/28 11:09:28;;;;;;;;;;;;;;;13.35;78.61;99712.75;5043841;28;19999;-62
2022/09/28 11:11:54;;;;;;;;;;;;;;;13.32;76.37;99709.50;5043665;28;19932;-62
2022/09/28 11:14:41;;;;;;;;;;;;;;;13.29;76.49;99703.75;5038684;28;19917;-62
2022/09/28 11:17:26;;;;;;;;;;;;;;;13.24;76.90;99707.06;5046407;28;19916;-62
2022/09/28 11:19:52;;;;;;;;;;;;;;;13.17;76.32;99716.13;5051441;28;19920;-62
2022/09/28 11:22:22;;;;;;;;;;;;;;;13.12;76.30;99711.44;5044003;28;19990;-62
2022/09/28 11:24:48;;;;;;;;;;;;;;;13.07;76.53;99715.78;5040463;28;20354;-62
2022/09/28 11:27:26;;;;;;;;;;;;;;;13.02;76.81;99711.09;5048361;28;20015;-62
2022/09/28 11:29:56;;;;;;;;;;;;;;;13.05;77.32;99708.00;5040760;28;19913;-62
2022/09/28 11:32:23;;;;;;;;;;;;;;;13.06;77.69;99709.63;5044187;28;19920;-62
2022/09/28 11:34:48;;;;;;;;;;;;;;;13.00;78.07;99710.47;5043612;28;19923;-62
2022/09/28 11:37:26;;;;;;;;;;;;;;;12.92;78.51;99729.38;5045481;28;19917;-61
2022/09/28 11:39:57;;;;;;;;;;;;;;;12.73;79.10;99709.81;5046633;28;20347;-61
2022/09/28 11:42:32;;;;;;;;;;;;;;;12.61;79.55;99708.81;5038735;28;19929;-61
2022/09/28 11:45:16;;;;;;;;;;;;;;;12.50;80.31;99704.16;5046410;28;19913;-62
2022/09/28 11:47:48;;;;;;;;;;;;;;;12.57;80.92;99711.09;5046999;28;19927;-61
2022/09/28 11:50:17;;;;;;;;;;;;;;;12.65;81.16;99700.19;5044198;28;20476;-62
2022/09/28 11:52:47;;;;;;;;;;;;;;;12.76;81.73;99698.72;5044993;28;19983;-62
2022/09/28 11:55:33;;;;;;;;;;;;;;;12.80;81.22;99704.44;5042357;28;19916;-62
2022/09/28 11:58:10;;;;;;;;;;;;;;;12.91;81.55;99693.91;5042370;28;19978;-62
2022/09/28 12:00:39;;;;;;;;;;;;;;;13.06;80.99;99698.97;5047676;28;19999;-62
2022/09/28 12:03:12;;;;;;;;;;;;;;;13.11;81.07;99695.66;5040627;28;19917;-62
2022/09/28 12:05:41;;;;;;;;;;;;;;;13.12;80.67;99694.63;5040611;28;20327;-62
2022/09/28 12:08:15;;;;;;;;;;;;;;;13.14;80.91;99704.03;5046612;28;19913;-62
2022/09/28 12:10:50;;;;;;;;;;;;;;;13.08;80.48;99696.09;5044690;28;19924;-62
2022/09/28 12:13:17;;;;;;;;;;;;;;;13.04;79.00;99701.03;5045300;28;19920;-62
2022/09/28 12:15:46;;;;;;;;;;;;;;;13.11;79.22;99693.81;5047188;28;19978;-62
2022/09/28 12:18:17;;;;;;;;;;;;;;;13.27;77.98;99697.81;5046023;28;19916;-62
2022/09/28 12:20:46;;;;;;;;;;;;;;;13.54;77.79;99696.59;5040998;28;19941;-62
2022/09/28 12:23:16;;;;;;;;;;;;;;;13.69;77.44;99690.94;5045120;28;20353;-63
2022/09/28 12:25:45;;;;;;;;;;;;;;;13.67;75.41;99694.88;5041760;28;19913;-62
2022/09/28 12:28:16;;;;;;;;;;;;;;;13.58;74.81;99696.97;5044358;28;19925;-62
2022/09/28 12:30:42;;;;;;;;;;;;;;;13.56;74.13;99704.38;5043573;28;19927;-62
2022/09/28 12:33:11;;;;;;;;;;;;;;;13.58;73.73;99696.97;5035363;28;19916;-62
2022/09/28 12:35:48;;;;;;;;;;;;;;;13.78;74.46;99689.63;5045281;28;19955;-62
2022/09/28 12:38:27;;;;;;;;;;;;;;;14.07;73.86;99695.28;5043686;28;19919;-62
2022/09/28 12:41:00;;;;;;;;;;;;;;;14.39;72.67;99686.09;5048148;28;20398;-62
2022/09/28 12:43:32;;;;;;;;;;;;;;;14.51;72.25;99692.38;5044765;28;19999;-62
2022/09/28 12:46:00;;;;;;;;;;;;;;;14.38;71.01;99699.66;5046218;28;19921;-62
2022/09/28 12:48:34;;;;;;;;;;;;;;;14.23;71.15;99692.88;5051462;28;19916;-62
2022/09/28 12:51:11;;;;;;;;;;;;;;;14.07;71.25;99690.75;5046731;28;20063;-62
2022/09/28 12:53:37;;;;;;;;;;;;;;;13.99;71.11;99695.59;5045916;28;19938;-62
2022/09/28 12:56:18;;;;;;;;;;;;;;;14.06;71.48;99710.50;5049331;28;19988;-62
2022/09/28 12:59:11;;;;;;;;;;;;;;;14.08;70.27;99702.25;5047385;28;20340;-61
2022/09/28 13:01:39;;;;;;;;;;;;;;;14.12;70.18;99693.59;5047649;28;19983;-62